sensor_id;sensor_type;location;lat;lon;timestamp;P1;durP1;ratioP1;P2;durP2;ratioP2
30020;SDS011;16861;52.294;7.760;2024-02-04T00:00:41;11.73;;;8.63;;
30020;SDS011;16861;52.294;7.760;2024-02-04T00:03:09;11.98;;;7.88;;
30020;SDS011;16861;52.294;7.760;2024-02-04T00:05:35;15.40;;;9.48;;
30020;SDS011;16861;52.294;7.760;2024-02-04T00:08:02;11.18;;;8.90;;
30020;SDS011;16861;52.294;7.760;2024-02-04T00:10:29;13.40;;;8.70;;
30020;SDS011;16861;52.294;7.760;2024-02-04T00:12:56;10.60;;;8.52;;
30020;SDS011;16861;52.294;7.760;2024-02-04T00:15:23;13.75;;;9.35;;
30020;SDS011;16861;52.294;7.760;2024-02-04T00:17:50;15.73;;;8.93;;
30020;SDS011;16861;52.294;7.760;2024-02-04T00:20:17;12.07;;;8.80;;
30020;SDS011;16861;52.294;7.760;2024-02-04T00:22:43;17.55;;;10.18;;
30020;SDS011;16861;52.294;7.760;2024-02-04T00:25:10;13.88;;;10.00;;
30020;SDS011;16861;52.294;7.760;2024-02-04T00:27:38;14.80;;;10.43;;
30020;SDS011;16861;52.294;7.760;2024-02-04T00:30:05;18.40;;;10.48;;
30020;SDS011;16861;52.294;7.760;2024-02-04T00:32:32;14.40;;;11.23;;
30020;SDS011;16861;52.294;7.760;2024-02-04T00:34:59;18.98;;;11.82;;
30020;SDS011;16861;52.294;7.760;2024-02-04T00:37:26;15.48;;;11.57;;
30020;SDS011;16861;52.294;7.760;2024-02-04T00:39:52;15.48;;;11.82;;
30020;SDS011;16861;52.294;7.760;2024-02-04T00:42:19;22.20;;;12.38;;
30020;SDS011;16861;52.294;7.760;2024-02-04T00:44:45;21.08;;;13.45;;
30020;SDS011;16861;52.294;7.760;2024-02-04T00:47:12;19.42;;;13.57;;
30020;SDS011;16861;52.294;7.760;2024-02-04T00:49:39;18.95;;;13.65;;
30020;SDS011;16861;52.294;7.760;2024-02-04T00:52:06;19.88;;;13.55;;
30020;SDS011;16861;52.294;7.760;2024-02-04T00:54:33;17.27;;;13.63;;
30020;SDS011;16861;52.294;7.760;2024-02-04T00:56:59;18.70;;;12.68;;
30020;SDS011;16861;52.294;7.760;2024-02-04T00:59:26;16.13;;;12.90;;
30020;SDS011;16861;52.294;7.760;2024-02-04T01:01:53;19.20;;;13.27;;
30020;SDS011;16861;52.294;7.760;2024-02-04T01:04:19;20.20;;;13.55;;
30020;SDS011;16861;52.294;7.760;2024-02-04T01:06:46;20.55;;;14.15;;
30020;SDS011;16861;52.294;7.760;2024-02-04T01:09:27;15.57;;;12.70;;
30020;SDS011;16861;52.294;7.760;2024-02-04T01:11:54;21.60;;;13.70;;
30020;SDS011;16861;52.294;7.760;2024-02-04T01:14:20;17.15;;;12.88;;
30020;SDS011;16861;52.294;7.760;2024-02-04T01:16:47;16.98;;;13.63;;
30020;SDS011;16861;52.294;7.760;2024-02-04T01:19:14;18.67;;;13.77;;
30020;SDS011;16861;52.294;7.760;2024-02-04T01:21:40;20.70;;;12.23;;
30020;SDS011;16861;52.294;7.760;2024-02-04T01:24:07;14.82;;;12.02;;
30020;SDS011;16861;52.294;7.760;2024-02-04T01:26:33;18.35;;;13.00;;
30020;SDS011;16861;52.294;7.760;2024-02-04T01:29:00;18.80;;;13.77;;
30020;SDS011;16861;52.294;7.760;2024-02-04T01:31:27;15.93;;;11.60;;
30020;SDS011;16861;52.294;7.760;2024-02-04T01:33:54;17.42;;;12.70;;
30020;SDS011;16861;52.294;7.760;2024-02-04T01:36:21;15.35;;;11.85;;
30020;SDS011;16861;52.294;7.760;2024-02-04T01:38:48;20.85;;;13.43;;
30020;SDS011;16861;52.294;7.760;2024-02-04T01:41:14;15.23;;;12.75;;
30020;SDS011;16861;52.294;7.760;2024-02-04T01:43:41;16.25;;;11.65;;
30020;SDS011;16861;52.294;7.760;2024-02-04T01:46:08;15.88;;;12.88;;
30020;SDS011;16861;52.294;7.760;2024-02-04T01:48:35;19.13;;;13.13;;
30020;SDS011;16861;52.294;7.760;2024-02-04T01:51:02;17.38;;;12.90;;
30020;SDS011;16861;52.294;7.760;2024-02-04T01:53:30;20.30;;;13.10;;
30020;SDS011;16861;52.294;7.760;2024-02-04T01:56:00;18.25;;;13.23;;
30020;SDS011;16861;52.294;7.760;2024-02-04T01:58:27;18.45;;;12.63;;
30020;SDS011;16861;52.294;7.760;2024-02-04T02:00:53;16.27;;;11.63;;
30020;SDS011;16861;52.294;7.760;2024-02-04T02:03:20;17.05;;;11.85;;
30020;SDS011;16861;52.294;7.760;2024-02-04T02:05:48;16.40;;;11.77;;
30020;SDS011;16861;52.294;7.760;2024-02-04T02:08:15;18.45;;;11.60;;
30020;SDS011;16861;52.294;7.760;2024-02-04T02:10:42;18.25;;;10.80;;
30020;SDS011;16861;52.294;7.760;2024-02-04T02:13:16;17.65;;;11.60;;
30020;SDS011;16861;52.294;7.760;2024-02-04T02:15:49;15.55;;;10.15;;
30020;SDS011;16861;52.294;7.760;2024-02-04T02:26:24;11.35;;;8.38;;
30020;SDS011;16861;52.294;7.760;2024-02-04T02:28:51;15.75;;;8.73;;
30020;SDS011;16861;52.294;7.760;2024-02-04T02:31:18;13.45;;;8.63;;
30020;SDS011;16861;52.294;7.760;2024-02-04T02:33:56;13.93;;;8.23;;
30020;SDS011;16861;52.294;7.760;2024-02-04T02:36:23;13.98;;;8.32;;
30020;SDS011;16861;52.294;7.760;2024-02-04T02:38:53;10.95;;;8.57;;
30020;SDS011;16861;52.294;7.760;2024-02-04T02:41:31;12.45;;;8.98;;
30020;SDS011;16861;52.294;7.760;2024-02-04T02:44:00;15.77;;;8.98;;
30020;SDS011;16861;52.294;7.760;2024-02-04T02:46:28;19.30;;;9.60;;
30020;SDS011;16861;52.294;7.760;2024-02-04T02:48:55;14.15;;;9.95;;
30020;SDS011;16861;52.294;7.760;2024-02-04T02:51:22;13.13;;;9.18;;
30020;SDS011;16861;52.294;7.760;2024-02-04T02:53:49;12.50;;;9.07;;
30020;SDS011;16861;52.294;7.760;2024-02-04T02:56:15;12.27;;;8.85;;
30020;SDS011;16861;52.294;7.760;2024-02-04T02:58:42;14.85;;;9.25;;
30020;SDS011;16861;52.294;7.760;2024-02-04T03:01:08;14.75;;;8.95;;
30020;SDS011;16861;52.294;7.760;2024-02-04T03:03:35;12.32;;;9.07;;
30020;SDS011;16861;52.294;7.760;2024-02-04T03:06:02;15.75;;;9.10;;
30020;SDS011;16861;52.294;7.760;2024-02-04T03:08:28;12.77;;;8.95;;
30020;SDS011;16861;52.294;7.760;2024-02-04T03:10:55;14.52;;;10.23;;
30020;SDS011;16861;52.294;7.760;2024-02-04T03:13:22;15.65;;;9.50;;
30020;SDS011;16861;52.294;7.760;2024-02-04T03:15:48;14.15;;;9.20;;
30020;SDS011;16861;52.294;7.760;2024-02-04T03:18:15;12.90;;;9.05;;
30020;SDS011;16861;52.294;7.760;2024-02-04T03:20:41;14.27;;;9.10;;
30020;SDS011;16861;52.294;7.760;2024-02-04T03:23:08;14.90;;;9.82;;
30020;SDS011;16861;52.294;7.760;2024-02-04T03:25:34;14.32;;;10.70;;
30020;SDS011;16861;52.294;7.760;2024-02-04T03:28:01;16.85;;;10.25;;
30020;SDS011;16861;52.294;7.760;2024-02-04T03:30:28;15.95;;;10.68;;
30020;SDS011;16861;52.294;7.760;2024-02-04T03:32:54;14.70;;;10.95;;
30020;SDS011;16861;52.294;7.760;2024-02-04T03:35:21;15.43;;;10.60;;
30020;SDS011;16861;52.294;7.760;2024-02-04T03:37:48;12.68;;;9.45;;
30020;SDS011;16861;52.294;7.760;2024-02-04T03:40:14;12.45;;;9.57;;
30020;SDS011;16861;52.294;7.760;2024-02-04T03:42:41;15.25;;;9.80;;
30020;SDS011;16861;52.294;7.760;2024-02-04T03:45:07;12.18;;;8.60;;
30020;SDS011;16861;52.294;7.760;2024-02-04T03:47:35;14.07;;;9.27;;
30020;SDS011;16861;52.294;7.760;2024-02-04T03:50:01;11.70;;;8.68;;
30020;SDS011;16861;52.294;7.760;2024-02-04T03:52:28;14.85;;;8.98;;
30020;SDS011;16861;52.294;7.760;2024-02-04T03:54:54;11.68;;;8.13;;
30020;SDS011;16861;52.294;7.760;2024-02-04T03:57:21;13.50;;;8.10;;
30020;SDS011;16861;52.294;7.760;2024-02-04T03:59:48;8.65;;;7.70;;
30020;SDS011;16861;52.294;7.760;2024-02-04T04:02:14;11.55;;;8.25;;
30020;SDS011;16861;52.294;7.760;2024-02-04T04:04:41;11.05;;;7.53;;
30020;SDS011;16861;52.294;7.760;2024-02-04T04:07:08;8.50;;;6.43;;
30020;SDS011;16861;52.294;7.760;2024-02-04T04:09:35;10.88;;;6.75;;
30020;SDS011;16861;52.294;7.760;2024-02-04T04:12:01;9.13;;;6.53;;
30020;SDS011;16861;52.294;7.760;2024-02-04T04:14:28;9.40;;;6.50;;
30020;SDS011;16861;52.294;7.760;2024-02-04T04:16:54;9.43;;;6.25;;
30020;SDS011;16861;52.294;7.760;2024-02-04T04:19:30;6.30;;;5.32;;
30020;SDS011;16861;52.294;7.760;2024-02-04T04:21:59;6.55;;;4.38;;
30020;SDS011;16861;52.294;7.760;2024-02-04T04:24:27;7.00;;;4.57;;
30020;SDS011;16861;52.294;7.760;2024-02-04T04:26:54;7.25;;;4.55;;
30020;SDS011;16861;52.294;7.760;2024-02-04T04:29:20;9.57;;;5.13;;
30020;SDS011;16861;52.294;7.760;2024-02-04T04:31:47;7.72;;;5.13;;
30020;SDS011;16861;52.294;7.760;2024-02-04T04:34:14;6.82;;;4.75;;
30020;SDS011;16861;52.294;7.760;2024-02-04T04:36:41;9.73;;;4.95;;
30020;SDS011;16861;52.294;7.760;2024-02-04T04:39:07;7.80;;;5.45;;
30020;SDS011;16861;52.294;7.760;2024-02-04T04:41:34;7.65;;;6.00;;
30020;SDS011;16861;52.294;7.760;2024-02-04T04:44:02;8.35;;;5.53;;
30020;SDS011;16861;52.294;7.760;2024-02-04T04:46:29;10.77;;;6.25;;
30020;SDS011;16861;52.294;7.760;2024-02-04T04:48:55;10.77;;;6.00;;
30020;SDS011;16861;52.294;7.760;2024-02-04T04:51:24;10.73;;;5.47;;
30020;SDS011;16861;52.294;7.760;2024-02-04T04:53:51;8.90;;;5.50;;
30020;SDS011;16861;52.294;7.760;2024-02-04T04:56:17;10.43;;;5.45;;
30020;SDS011;16861;52.294;7.760;2024-02-04T04:58:44;9.07;;;4.93;;
30020;SDS011;16861;52.294;7.760;2024-02-04T05:01:10;7.35;;;5.03;;
30020;SDS011;16861;52.294;7.760;2024-02-04T05:03:37;12.50;;;5.53;;
30020;SDS011;16861;52.294;7.760;2024-02-04T05:06:04;11.55;;;5.78;;
30020;SDS011;16861;52.294;7.760;2024-02-04T05:08:30;11.88;;;6.03;;
30020;SDS011;16861;52.294;7.760;2024-02-04T05:10:57;8.85;;;6.05;;
30020;SDS011;16861;52.294;7.760;2024-02-04T05:13:23;12.27;;;6.30;;
30020;SDS011;16861;52.294;7.760;2024-02-04T05:15:50;9.48;;;6.25;;
30020;SDS011;16861;52.294;7.760;2024-02-04T05:18:17;13.48;;;6.25;;
30020;SDS011;16861;52.294;7.760;2024-02-04T05:20:43;10.90;;;5.80;;
30020;SDS011;16861;52.294;7.760;2024-02-04T05:23:10;12.48;;;7.00;;
30020;SDS011;16861;52.294;7.760;2024-02-04T05:25:37;10.90;;;5.88;;
30020;SDS011;16861;52.294;7.760;2024-02-04T05:28:03;7.97;;;5.53;;
30020;SDS011;16861;52.294;7.760;2024-02-04T05:30:30;10.75;;;5.95;;
30020;SDS011;16861;52.294;7.760;2024-02-04T05:32:57;11.10;;;4.75;;
30020;SDS011;16861;52.294;7.760;2024-02-04T05:35:23;11.13;;;4.50;;
30020;SDS011;16861;52.294;7.760;2024-02-04T05:37:50;5.57;;;4.22;;
30020;SDS011;16861;52.294;7.760;2024-02-04T05:40:16;11.35;;;4.22;;
30020;SDS011;16861;52.294;7.760;2024-02-04T05:42:45;7.88;;;3.65;;
30020;SDS011;16861;52.294;7.760;2024-02-04T05:45:12;8.52;;;3.78;;
30020;SDS011;16861;52.294;7.760;2024-02-04T05:47:39;8.50;;;3.88;;
30020;SDS011;16861;52.294;7.760;2024-02-04T05:50:06;7.82;;;3.20;;
30020;SDS011;16861;52.294;7.760;2024-02-04T05:52:33;6.03;;;3.60;;
30020;SDS011;16861;52.294;7.760;2024-02-04T05:54:59;9.27;;;3.05;;
30020;SDS011;16861;52.294;7.760;2024-02-04T05:57:30;8.10;;;2.67;;
30020;SDS011;16861;52.294;7.760;2024-02-04T05:59:57;7.05;;;2.80;;
30020;SDS011;16861;52.294;7.760;2024-02-04T06:02:25;7.07;;;2.30;;
30020;SDS011;16861;52.294;7.760;2024-02-04T06:04:52;6.35;;;1.90;;
30020;SDS011;16861;52.294;7.760;2024-02-04T06:07:20;8.43;;;2.53;;
30020;SDS011;16861;52.294;7.760;2024-02-04T06:09:46;7.30;;;2.33;;
30020;SDS011;16861;52.294;7.760;2024-02-04T06:12:13;4.90;;;2.13;;
30020;SDS011;16861;52.294;7.760;2024-02-04T06:14:39;9.32;;;2.28;;
30020;SDS011;16861;52.294;7.760;2024-02-04T06:17:06;7.35;;;1.92;;
30020;SDS011;16861;52.294;7.760;2024-02-04T06:19:34;9.73;;;2.42;;
30020;SDS011;16861;52.294;7.760;2024-02-04T06:22:01;8.98;;;1.90;;
30020;SDS011;16861;52.294;7.760;2024-02-04T06:24:28;6.97;;;2.15;;
30020;SDS011;16861;52.294;7.760;2024-02-04T06:26:55;6.32;;;2.15;;
30020;SDS011;16861;52.294;7.760;2024-02-04T06:29:22;6.43;;;1.75;;
30020;SDS011;16861;52.294;7.760;2024-02-04T06:31:48;7.00;;;1.70;;
30020;SDS011;16861;52.294;7.760;2024-02-04T06:34:15;5.55;;;2.10;;
30020;SDS011;16861;52.294;7.760;2024-02-04T06:36:42;4.85;;;1.60;;
30020;SDS011;16861;52.294;7.760;2024-02-04T06:39:10;8.02;;;1.98;;
30020;SDS011;16861;52.294;7.760;2024-02-04T06:41:37;7.97;;;1.83;;
30020;SDS011;16861;52.294;7.760;2024-02-04T06:44:03;8.27;;;2.20;;
30020;SDS011;16861;52.294;7.760;2024-02-04T06:46:30;8.73;;;1.75;;
30020;SDS011;16861;52.294;7.760;2024-02-04T06:48:57;6.57;;;1.85;;
30020;SDS011;16861;52.294;7.760;2024-02-04T06:51:24;7.95;;;2.00;;
30020;SDS011;16861;52.294;7.760;2024-02-04T06:53:50;10.82;;;2.03;;
30020;SDS011;16861;52.294;7.760;2024-02-04T06:56:17;7.65;;;2.25;;
30020;SDS011;16861;52.294;7.760;2024-02-04T06:58:44;10.48;;;2.30;;
30020;SDS011;16861;52.294;7.760;2024-02-04T07:01:11;6.72;;;1.80;;
30020;SDS011;16861;52.294;7.760;2024-02-04T07:03:38;5.13;;;1.88;;
30020;SDS011;16861;52.294;7.760;2024-02-04T07:06:05;6.70;;;2.22;;
30020;SDS011;16861;52.294;7.760;2024-02-04T07:08:32;8.30;;;2.30;;
30020;SDS011;16861;52.294;7.760;2024-02-04T07:10:58;5.15;;;1.85;;
30020;SDS011;16861;52.294;7.760;2024-02-04T07:13:26;7.32;;;2.33;;
30020;SDS011;16861;52.294;7.760;2024-02-04T07:15:52;9.05;;;2.22;;
30020;SDS011;16861;52.294;7.760;2024-02-04T07:18:20;7.22;;;2.22;;
30020;SDS011;16861;52.294;7.760;2024-02-04T07:20:48;7.30;;;1.80;;
30020;SDS011;16861;52.294;7.760;2024-02-04T07:23:15;11.13;;;2.28;;
30020;SDS011;16861;52.294;7.760;2024-02-04T07:25:41;13.88;;;2.63;;
30020;SDS011;16861;52.294;7.760;2024-02-04T07:28:09;7.07;;;1.92;;
30020;SDS011;16861;52.294;7.760;2024-02-04T07:30:35;8.85;;;2.35;;
30020;SDS011;16861;52.294;7.760;2024-02-04T07:33:02;11.32;;;2.10;;
30020;SDS011;16861;52.294;7.760;2024-02-04T07:35:29;11.15;;;2.30;;
30020;SDS011;16861;52.294;7.760;2024-02-04T07:37:55;9.85;;;2.30;;
30020;SDS011;16861;52.294;7.760;2024-02-04T07:40:24;9.52;;;1.85;;
30020;SDS011;16861;52.294;7.760;2024-02-04T07:42:50;9.18;;;1.98;;
30020;SDS011;16861;52.294;7.760;2024-02-04T07:45:17;9.05;;;2.17;;
30020;SDS011;16861;52.294;7.760;2024-02-04T07:47:44;7.65;;;1.88;;
30020;SDS011;16861;52.294;7.760;2024-02-04T07:50:10;10.20;;;2.10;;
30020;SDS011;16861;52.294;7.760;2024-02-04T07:52:37;11.02;;;1.85;;
30020;SDS011;16861;52.294;7.760;2024-02-04T07:55:07;7.95;;;1.75;;
30020;SDS011;16861;52.294;7.760;2024-02-04T07:57:34;9.75;;;2.08;;
30020;SDS011;16861;52.294;7.760;2024-02-04T08:00:01;9.63;;;1.80;;
30020;SDS011;16861;52.294;7.760;2024-02-04T08:02:31;10.50;;;2.05;;
30020;SDS011;16861;52.294;7.760;2024-02-04T08:04:57;9.48;;;2.45;;
30020;SDS011;16861;52.294;7.760;2024-02-04T08:07:24;7.00;;;1.55;;
30020;SDS011;16861;52.294;7.760;2024-02-04T08:09:51;9.80;;;1.83;;
30020;SDS011;16861;52.294;7.760;2024-02-04T08:12:18;12.65;;;2.80;;
30020;SDS011;16861;52.294;7.760;2024-02-04T08:14:45;8.77;;;2.00;;
30020;SDS011;16861;52.294;7.760;2024-02-04T08:17:11;12.23;;;1.70;;
30020;SDS011;16861;52.294;7.760;2024-02-04T08:19:38;11.43;;;2.20;;
30020;SDS011;16861;52.294;7.760;2024-02-04T08:22:05;11.65;;;2.08;;
30020;SDS011;16861;52.294;7.760;2024-02-04T08:24:33;11.65;;;1.85;;
30020;SDS011;16861;52.294;7.760;2024-02-04T08:27:00;9.73;;;2.45;;
30020;SDS011;16861;52.294;7.760;2024-02-04T08:29:26;16.05;;;2.70;;
30020;SDS011;16861;52.294;7.760;2024-02-04T08:31:53;12.13;;;2.42;;
30020;SDS011;16861;52.294;7.760;2024-02-04T08:34:19;9.40;;;1.85;;
30020;SDS011;16861;52.294;7.760;2024-02-04T08:36:47;11.10;;;2.03;;
30020;SDS011;16861;52.294;7.760;2024-02-04T08:39:14;13.10;;;2.15;;
30020;SDS011;16861;52.294;7.760;2024-02-04T08:41:41;8.77;;;1.90;;
30020;SDS011;16861;52.294;7.760;2024-02-04T08:44:08;9.30;;;2.28;;
30020;SDS011;16861;52.294;7.760;2024-02-04T08:46:38;9.25;;;1.95;;
30020;SDS011;16861;52.294;7.760;2024-02-04T08:49:05;9.60;;;2.10;;
30020;SDS011;16861;52.294;7.760;2024-02-04T08:51:31;10.60;;;2.15;;
30020;SDS011;16861;52.294;7.760;2024-02-04T08:53:58;8.52;;;2.15;;
30020;SDS011;16861;52.294;7.760;2024-02-04T08:56:25;9.35;;;1.98;;
30020;SDS011;16861;52.294;7.760;2024-02-04T08:58:51;8.98;;;2.25;;
30020;SDS011;16861;52.294;7.760;2024-02-04T09:01:18;7.05;;;1.90;;
30020;SDS011;16861;52.294;7.760;2024-02-04T09:03:45;12.48;;;2.28;;
30020;SDS011;16861;52.294;7.760;2024-02-04T09:06:12;8.70;;;2.25;;
30020;SDS011;16861;52.294;7.760;2024-02-04T09:08:39;7.35;;;1.73;;
30020;SDS011;16861;52.294;7.760;2024-02-04T09:11:05;9.32;;;2.17;;
30020;SDS011;16861;52.294;7.760;2024-02-04T09:13:32;5.47;;;1.60;;
30020;SDS011;16861;52.294;7.760;2024-02-04T09:15:59;6.68;;;1.50;;
30020;SDS011;16861;52.294;7.760;2024-02-04T09:18:25;6.25;;;2.15;;
30020;SDS011;16861;52.294;7.760;2024-02-04T09:20:52;5.15;;;1.48;;
30020;SDS011;16861;52.294;7.760;2024-02-04T09:23:19;4.10;;;1.58;;
30020;SDS011;16861;52.294;7.760;2024-02-04T09:25:46;4.97;;;1.45;;
30020;SDS011;16861;52.294;7.760;2024-02-04T09:28:12;5.07;;;1.10;;
30020;SDS011;16861;52.294;7.760;2024-02-04T09:30:39;3.55;;;1.35;;
30020;SDS011;16861;52.294;7.760;2024-02-04T09:33:05;5.65;;;1.60;;
30020;SDS011;16861;52.294;7.760;2024-02-04T09:35:32;4.20;;;1.45;;
30020;SDS011;16861;52.294;7.760;2024-02-04T09:37:59;7.63;;;1.90;;
30020;SDS011;16861;52.294;7.760;2024-02-04T09:40:26;3.80;;;1.33;;
30020;SDS011;16861;52.294;7.760;2024-02-04T09:42:53;5.40;;;1.55;;
30020;SDS011;16861;52.294;7.760;2024-02-04T09:45:20;4.10;;;1.67;;
30020;SDS011;16861;52.294;7.760;2024-02-04T09:47:47;4.90;;;1.23;;
30020;SDS011;16861;52.294;7.760;2024-02-04T09:50:16;8.60;;;1.90;;
30020;SDS011;16861;52.294;7.760;2024-02-04T09:52:49;4.35;;;1.08;;
30020;SDS011;16861;52.294;7.760;2024-02-04T09:55:17;4.85;;;1.10;;
30020;SDS011;16861;52.294;7.760;2024-02-04T09:57:47;4.05;;;1.50;;
30020;SDS011;16861;52.294;7.760;2024-02-04T10:00:14;4.95;;;1.13;;
30020;SDS011;16861;52.294;7.760;2024-02-04T10:02:47;5.88;;;1.58;;
30020;SDS011;16861;52.294;7.760;2024-02-04T10:05:15;4.93;;;1.33;;
30020;SDS011;16861;52.294;7.760;2024-02-04T10:07:42;4.35;;;1.20;;
30020;SDS011;16861;52.294;7.760;2024-02-04T10:10:09;5.13;;;1.20;;
30020;SDS011;16861;52.294;7.760;2024-02-04T10:12:36;2.97;;;1.00;;
30020;SDS011;16861;52.294;7.760;2024-02-04T10:15:05;4.60;;;1.20;;
30020;SDS011;16861;52.294;7.760;2024-02-04T10:17:32;3.17;;;0.90;;
30020;SDS011;16861;52.294;7.760;2024-02-04T10:20:00;2.80;;;1.15;;
30020;SDS011;16861;52.294;7.760;2024-02-04T10:22:27;8.48;;;1.40;;
30020;SDS011;16861;52.294;7.760;2024-02-04T10:25:05;2.45;;;1.08;;
30020;SDS011;16861;52.294;7.760;2024-02-04T10:27:38;3.40;;;1.17;;
30020;SDS011;16861;52.294;7.760;2024-02-04T10:30:05;2.15;;;1.00;;
30020;SDS011;16861;52.294;7.760;2024-02-04T10:32:33;7.55;;;1.70;;
30020;SDS011;16861;52.294;7.760;2024-02-04T10:35:00;2.45;;;1.33;;
30020;SDS011;16861;52.294;7.760;2024-02-04T10:37:28;7.05;;;1.83;;
30020;SDS011;16861;52.294;7.760;2024-02-04T10:39:56;2.85;;;1.50;;
30020;SDS011;16861;52.294;7.760;2024-02-04T10:42:24;5.70;;;1.80;;
30020;SDS011;16861;52.294;7.760;2024-02-04T10:44:53;5.82;;;2.25;;
30020;SDS011;16861;52.294;7.760;2024-02-04T10:47:24;5.05;;;1.98;;
30020;SDS011;16861;52.294;7.760;2024-02-04T10:49:56;7.07;;;2.13;;
30020;SDS011;16861;52.294;7.760;2024-02-04T10:52:27;4.18;;;2.10;;
30020;SDS011;16861;52.294;7.760;2024-02-04T10:54:54;6.35;;;2.28;;
30020;SDS011;16861;52.294;7.760;2024-02-04T10:57:22;5.25;;;2.15;;
30020;SDS011;16861;52.294;7.760;2024-02-04T10:59:53;5.90;;;1.95;;
30020;SDS011;16861;52.294;7.760;2024-02-04T11:02:20;4.72;;;2.38;;
30020;SDS011;16861;52.294;7.760;2024-02-04T11:04:48;3.50;;;1.98;;
30020;SDS011;16861;52.294;7.760;2024-02-04T11:07:16;4.32;;;2.47;;
30020;SDS011;16861;52.294;7.760;2024-02-04T11:09:45;7.47;;;2.38;;
30020;SDS011;16861;52.294;7.760;2024-02-04T11:12:16;7.25;;;2.10;;
30020;SDS011;16861;52.294;7.760;2024-02-04T11:14:46;9.60;;;2.42;;
30020;SDS011;16861;52.294;7.760;2024-02-04T11:25:54;5.90;;;2.53;;
30020;SDS011;16861;52.294;7.760;2024-02-04T11:28:25;5.60;;;2.70;;
30020;SDS011;16861;52.294;7.760;2024-02-04T11:30:52;5.97;;;3.10;;
30020;SDS011;16861;52.294;7.760;2024-02-04T11:33:23;7.60;;;3.30;;
30020;SDS011;16861;52.294;7.760;2024-02-04T11:36:00;5.72;;;3.30;;
30020;SDS011;16861;52.294;7.760;2024-02-04T11:38:30;8.90;;;3.88;;
30020;SDS011;16861;52.294;7.760;2024-02-04T11:41:04;5.78;;;3.92;;
30020;SDS011;16861;52.294;7.760;2024-02-04T11:43:34;7.28;;;4.32;;
30020;SDS011;16861;52.294;7.760;2024-02-04T11:46:02;7.43;;;4.00;;
30020;SDS011;16861;52.294;7.760;2024-02-04T11:48:30;7.75;;;4.22;;
30020;SDS011;16861;52.294;7.760;2024-02-04T11:50:59;6.35;;;4.28;;
30020;SDS011;16861;52.294;7.760;2024-02-04T11:53:28;5.53;;;3.85;;
30020;SDS011;16861;52.294;7.760;2024-02-04T11:55:58;6.13;;;4.15;;
30020;SDS011;16861;52.294;7.760;2024-02-04T11:58:29;7.85;;;4.35;;
30020;SDS011;16861;52.294;7.760;2024-02-04T12:00:58;6.45;;;4.13;;
30020;SDS011;16861;52.294;7.760;2024-02-04T12:03:31;6.30;;;4.35;;
30020;SDS011;16861;52.294;7.760;2024-02-04T12:06:00;8.73;;;4.80;;
30020;SDS011;16861;52.294;7.760;2024-02-04T12:08:28;8.73;;;4.32;;
30020;SDS011;16861;52.294;7.760;2024-02-04T12:10:56;10.93;;;4.40;;
30020;SDS011;16861;52.294;7.760;2024-02-04T12:13:24;5.88;;;4.40;;
30020;SDS011;16861;52.294;7.760;2024-02-04T12:15:50;7.80;;;3.78;;
30020;SDS011;16861;52.294;7.760;2024-02-04T12:18:17;5.40;;;4.05;;
30020;SDS011;16861;52.294;7.760;2024-02-04T12:20:47;6.28;;;4.25;;
30020;SDS011;16861;52.294;7.760;2024-02-04T12:23:17;7.55;;;4.32;;
30020;SDS011;16861;52.294;7.760;2024-02-04T12:25:45;7.65;;;4.43;;
30020;SDS011;16861;52.294;7.760;2024-02-04T12:28:12;8.15;;;4.43;;
30020;SDS011;16861;52.294;7.760;2024-02-04T12:30:40;8.23;;;4.28;;
30020;SDS011;16861;52.294;7.760;2024-02-04T12:33:06;7.53;;;4.40;;
30020;SDS011;16861;52.294;7.760;2024-02-04T12:35:35;6.63;;;4.95;;
30020;SDS011;16861;52.294;7.760;2024-02-04T12:38:01;7.97;;;4.53;;
30020;SDS011;16861;52.294;7.760;2024-02-04T12:40:30;6.70;;;4.20;;
30020;SDS011;16861;52.294;7.760;2024-02-04T12:42:58;5.10;;;3.50;;
30020;SDS011;16861;52.294;7.760;2024-02-04T12:45:31;7.75;;;3.42;;
30020;SDS011;16861;52.294;7.760;2024-02-04T12:47:58;4.85;;;3.70;;
30020;SDS011;16861;52.294;7.760;2024-02-04T12:50:25;5.13;;;3.60;;
30020;SDS011;16861;52.294;7.760;2024-02-04T12:53:05;7.45;;;2.97;;
30020;SDS011;16861;52.294;7.760;2024-02-04T12:55:34;4.25;;;2.40;;
30020;SDS011;16861;52.294;7.760;2024-02-04T12:58:11;4.47;;;1.80;;
30020;SDS011;16861;52.294;7.760;2024-02-04T13:00:43;5.50;;;1.30;;
30020;SDS011;16861;52.294;7.760;2024-02-04T13:03:10;2.65;;;1.00;;
30020;SDS011;16861;52.294;7.760;2024-02-04T13:05:37;2.92;;;1.15;;
30020;SDS011;16861;52.294;7.760;2024-02-04T13:08:04;2.42;;;0.85;;
30020;SDS011;16861;52.294;7.760;2024-02-04T13:10:32;2.97;;;1.02;;
30020;SDS011;16861;52.294;7.760;2024-02-04T13:13:07;1.95;;;0.93;;
30020;SDS011;16861;52.294;7.760;2024-02-04T13:18:07;4.45;;;1.10;;
30020;SDS011;16861;52.294;7.760;2024-02-04T13:20:34;1.58;;;0.70;;
30020;SDS011;16861;52.294;7.760;2024-02-04T13:23:01;1.38;;;0.50;;
30020;SDS011;16861;52.294;7.760;2024-02-04T13:25:31;3.22;;;0.95;;
30020;SDS011;16861;52.294;7.760;2024-02-04T13:27:58;3.30;;;1.13;;
30020;SDS011;16861;52.294;7.760;2024-02-04T13:30:25;4.15;;;1.20;;
30020;SDS011;16861;52.294;7.760;2024-02-04T13:32:52;3.28;;;1.25;;
30020;SDS011;16861;52.294;7.760;2024-02-04T13:35:19;4.18;;;0.73;;
30020;SDS011;16861;52.294;7.760;2024-02-04T13:37:47;3.97;;;0.80;;
30020;SDS011;16861;52.294;7.760;2024-02-04T13:40:16;3.97;;;0.80;;
30020;SDS011;16861;52.294;7.760;2024-02-04T13:42:44;3.35;;;1.10;;
30020;SDS011;16861;52.294;7.760;2024-02-04T13:45:11;4.15;;;1.40;;
30020;SDS011;16861;52.294;7.760;2024-02-04T13:47:41;2.67;;;1.42;;
30020;SDS011;16861;52.294;7.760;2024-02-04T13:50:11;4.35;;;1.10;;
30020;SDS011;16861;52.294;7.760;2024-02-04T13:52:39;4.55;;;1.30;;
30020;SDS011;16861;52.294;7.760;2024-02-04T13:55:06;3.05;;;0.95;;
30020;SDS011;16861;52.294;7.760;2024-02-04T13:57:33;4.60;;;1.00;;
30020;SDS011;16861;52.294;7.760;2024-02-04T14:00:01;3.15;;;0.93;;
30020;SDS011;16861;52.294;7.760;2024-02-04T14:02:30;3.28;;;1.13;;
30020;SDS011;16861;52.294;7.760;2024-02-04T14:04:56;6.00;;;1.10;;
30020;SDS011;16861;52.294;7.760;2024-02-04T14:07:24;2.95;;;1.20;;
30020;SDS011;16861;52.294;7.760;2024-02-04T14:09:52;2.67;;;1.13;;
30020;SDS011;16861;52.294;7.760;2024-02-04T14:12:18;2.60;;;1.08;;
30020;SDS011;16861;52.294;7.760;2024-02-04T14:14:45;4.55;;;1.42;;
30020;SDS011;16861;52.294;7.760;2024-02-04T14:17:11;4.18;;;1.25;;
30020;SDS011;16861;52.294;7.760;2024-02-04T14:19:38;3.67;;;1.00;;
30020;SDS011;16861;52.294;7.760;2024-02-04T14:22:05;2.33;;;1.00;;
30020;SDS011;16861;52.294;7.760;2024-02-04T14:24:31;1.48;;;1.02;;
30020;SDS011;16861;52.294;7.760;2024-02-04T14:26:58;2.08;;;1.08;;
30020;SDS011;16861;52.294;7.760;2024-02-04T14:29:25;2.78;;;1.05;;
30020;SDS011;16861;52.294;7.760;2024-02-04T14:31:52;3.08;;;1.55;;
30020;SDS011;16861;52.294;7.760;2024-02-04T14:34:19;3.45;;;1.17;;
30020;SDS011;16861;52.294;7.760;2024-02-04T14:36:45;5.22;;;1.73;;
30020;SDS011;16861;52.294;7.760;2024-02-04T14:39:12;3.65;;;1.58;;
30020;SDS011;16861;52.294;7.760;2024-02-04T14:41:40;3.92;;;1.60;;
30020;SDS011;16861;52.294;7.760;2024-02-04T14:44:06;4.38;;;2.03;;
30020;SDS011;16861;52.294;7.760;2024-02-04T14:46:35;2.75;;;1.50;;
30020;SDS011;16861;52.294;7.760;2024-02-04T14:49:03;1.83;;;1.40;;
30020;SDS011;16861;52.294;7.760;2024-02-04T14:51:30;3.90;;;1.45;;
30020;SDS011;16861;52.294;7.760;2024-02-04T14:53:57;2.50;;;1.42;;
30020;SDS011;16861;52.294;7.760;2024-02-04T14:56:24;3.67;;;1.45;;
30020;SDS011;16861;52.294;7.760;2024-02-04T14:58:50;2.92;;;1.40;;
30020;SDS011;16861;52.294;7.760;2024-02-04T15:01:17;1.90;;;1.60;;